sensor_id;sensor_type;location;lat;lon;timestamp;P1;durP1;ratioP1;P2;durP2;ratioP2
83632;SDS011;73595;53.084;6.696;2024-03-22T00:01:39;33.20;;;21.63;;
83632;SDS011;73595;53.084;6.696;2024-03-22T00:04:04;34.70;;;21.90;;
83632;SDS011;73595;53.084;6.696;2024-03-22T00:06:29;36.13;;;22.00;;
83632;SDS011;73595;53.084;6.696;2024-03-22T00:08:56;34.60;;;22.15;;
83632;SDS011;73595;53.084;6.696;2024-03-22T00:11:21;33.55;;;22.13;;
83632;SDS011;73595;53.084;6.696;2024-03-22T00:13:46;34.35;;;23.40;;
83632;SDS011;73595;53.084;6.696;2024-03-22T00:16:12;33.03;;;21.48;;
83632;SDS011;73595;53.084;6.696;2024-03-22T00:18:37;33.60;;;22.83;;
83632;SDS011;73595;53.084;6.696;2024-03-22T00:21:02;36.72;;;24.00;;
83632;SDS011;73595;53.084;6.696;2024-03-22T00:23:28;41.10;;;25.25;;
83632;SDS011;73595;53.084;6.696;2024-03-22T00:25:55;40.42;;;25.25;;
83632;SDS011;73595;53.084;6.696;2024-03-22T00:28:20;37.58;;;23.80;;
83632;SDS011;73595;53.084;6.696;2024-03-22T00:30:45;39.60;;;24.08;;
83632;SDS011;73595;53.084;6.696;2024-03-22T00:33:11;39.88;;;25.58;;
83632;SDS011;73595;53.084;6.696;2024-03-22T00:35:36;41.63;;;25.40;;
83632;SDS011;73595;53.084;6.696;2024-03-22T00:38:01;38.58;;;25.13;;
83632;SDS011;73595;53.084;6.696;2024-03-22T00:40:27;39.42;;;25.73;;
83632;SDS011;73595;53.084;6.696;2024-03-22T00:42:52;38.80;;;26.23;;
83632;SDS011;73595;53.084;6.696;2024-03-22T00:45:17;41.65;;;26.17;;
83632;SDS011;73595;53.084;6.696;2024-03-22T00:47:43;43.08;;;25.52;;
83632;SDS011;73595;53.084;6.696;2024-03-22T00:50:08;48.67;;;27.38;;
83632;SDS011;73595;53.084;6.696;2024-03-22T00:52:33;39.83;;;26.55;;
83632;SDS011;73595;53.084;6.696;2024-03-22T00:54:59;41.70;;;27.30;;
83632;SDS011;73595;53.084;6.696;2024-03-22T00:57:24;41.35;;;26.85;;
83632;SDS011;73595;53.084;6.696;2024-03-22T00:59:50;45.70;;;27.80;;
83632;SDS011;73595;53.084;6.696;2024-03-22T01:02:15;48.35;;;28.65;;
83632;SDS011;73595;53.084;6.696;2024-03-22T01:04:40;42.83;;;27.60;;
83632;SDS011;73595;53.084;6.696;2024-03-22T01:07:06;43.85;;;28.17;;
83632;SDS011;73595;53.084;6.696;2024-03-22T01:09:31;43.58;;;28.08;;
83632;SDS011;73595;53.084;6.696;2024-03-22T01:11:56;47.03;;;30.08;;
83632;SDS011;73595;53.084;6.696;2024-03-22T01:14:22;47.03;;;29.55;;
83632;SDS011;73595;53.084;6.696;2024-03-22T01:16:47;45.35;;;29.10;;
83632;SDS011;73595;53.084;6.696;2024-03-22T01:19:12;50.20;;;30.35;;
83632;SDS011;73595;53.084;6.696;2024-03-22T01:21:38;51.15;;;31.23;;
83632;SDS011;73595;53.084;6.696;2024-03-22T01:24:03;58.50;;;32.15;;
83632;SDS011;73595;53.084;6.696;2024-03-22T01:26:28;49.92;;;30.65;;
83632;SDS011;73595;53.084;6.696;2024-03-22T01:28:54;49.72;;;30.58;;
83632;SDS011;73595;53.084;6.696;2024-03-22T01:31:19;49.35;;;30.13;;
83632;SDS011;73595;53.084;6.696;2024-03-22T01:33:44;47.72;;;30.00;;
83632;SDS011;73595;53.084;6.696;2024-03-22T01:36:10;53.17;;;31.92;;
83632;SDS011;73595;53.084;6.696;2024-03-22T01:38:35;50.95;;;30.20;;
83632;SDS011;73595;53.084;6.696;2024-03-22T01:41:00;56.97;;;32.85;;
83632;SDS011;73595;53.084;6.696;2024-03-22T01:43:26;54.05;;;31.85;;
83632;SDS011;73595;53.084;6.696;2024-03-22T01:45:51;63.42;;;34.78;;
83632;SDS011;73595;53.084;6.696;2024-03-22T01:48:16;55.78;;;32.58;;
83632;SDS011;73595;53.084;6.696;2024-03-22T01:50:42;54.05;;;33.65;;
83632;SDS011;73595;53.084;6.696;2024-03-22T01:53:08;57.88;;;35.15;;
83632;SDS011;73595;53.084;6.696;2024-03-22T01:55:34;55.95;;;34.80;;
83632;SDS011;73595;53.084;6.696;2024-03-22T01:57:59;61.35;;;34.83;;
83632;SDS011;73595;53.084;6.696;2024-03-22T02:00:25;56.05;;;33.60;;
83632;SDS011;73595;53.084;6.696;2024-03-22T02:02:50;57.70;;;35.03;;
83632;SDS011;73595;53.084;6.696;2024-03-22T02:05:16;56.40;;;33.13;;
83632;SDS011;73595;53.084;6.696;2024-03-22T02:07:46;59.33;;;34.85;;
83632;SDS011;73595;53.084;6.696;2024-03-22T02:10:12;59.05;;;34.35;;
83632;SDS011;73595;53.084;6.696;2024-03-22T02:12:39;61.65;;;36.78;;
83632;SDS011;73595;53.084;6.696;2024-03-22T02:15:05;58.78;;;35.17;;
83632;SDS011;73595;53.084;6.696;2024-03-22T02:17:32;65.75;;;35.35;;
83632;SDS011;73595;53.084;6.696;2024-03-22T02:19:58;60.35;;;34.95;;
83632;SDS011;73595;53.084;6.696;2024-03-22T02:22:24;74.28;;;39.55;;
83632;SDS011;73595;53.084;6.696;2024-03-22T02:24:49;61.95;;;35.20;;
83632;SDS011;73595;53.084;6.696;2024-03-22T02:27:14;63.20;;;36.25;;
83632;SDS011;73595;53.084;6.696;2024-03-22T02:29:40;61.72;;;37.47;;
83632;SDS011;73595;53.084;6.696;2024-03-22T02:32:05;63.90;;;35.92;;
83632;SDS011;73595;53.084;6.696;2024-03-22T02:34:31;65.38;;;36.42;;
83632;SDS011;73595;53.084;6.696;2024-03-22T02:36:56;72.82;;;38.50;;
83632;SDS011;73595;53.084;6.696;2024-03-22T02:39:21;66.80;;;37.90;;
83632;SDS011;73595;53.084;6.696;2024-03-22T02:41:47;68.93;;;37.47;;
83632;SDS011;73595;53.084;6.696;2024-03-22T02:44:12;73.03;;;39.83;;
83632;SDS011;73595;53.084;6.696;2024-03-22T02:46:38;67.25;;;38.88;;
83632;SDS011;73595;53.084;6.696;2024-03-22T02:49:03;71.78;;;40.15;;
83632;SDS011;73595;53.084;6.696;2024-03-22T02:51:28;71.88;;;38.85;;
83632;SDS011;73595;53.084;6.696;2024-03-22T02:53:54;69.93;;;38.83;;
83632;SDS011;73595;53.084;6.696;2024-03-22T02:56:19;67.63;;;37.90;;
83632;SDS011;73595;53.084;6.696;2024-03-22T02:58:44;70.90;;;38.95;;
83632;SDS011;73595;53.084;6.696;2024-03-22T03:01:10;73.55;;;39.33;;
83632;SDS011;73595;53.084;6.696;2024-03-22T03:03:35;79.57;;;39.70;;
83632;SDS011;73595;53.084;6.696;2024-03-22T03:06:00;80.90;;;43.10;;
83632;SDS011;73595;53.084;6.696;2024-03-22T03:08:26;72.63;;;39.45;;
83632;SDS011;73595;53.084;6.696;2024-03-22T03:10:51;76.45;;;40.95;;
83632;SDS011;73595;53.084;6.696;2024-03-22T03:13:17;73.15;;;40.28;;
83632;SDS011;73595;53.084;6.696;2024-03-22T03:15:43;69.38;;;38.40;;
83632;SDS011;73595;53.084;6.696;2024-03-22T03:18:08;76.03;;;41.22;;
83632;SDS011;73595;53.084;6.696;2024-03-22T03:20:33;69.10;;;36.75;;
83632;SDS011;73595;53.084;6.696;2024-03-22T03:22:59;74.55;;;39.75;;
83632;SDS011;73595;53.084;6.696;2024-03-22T03:25:25;72.25;;;38.47;;
83632;SDS011;73595;53.084;6.696;2024-03-22T03:27:51;75.85;;;40.67;;
83632;SDS011;73595;53.084;6.696;2024-03-22T03:30:16;71.20;;;38.97;;
83632;SDS011;73595;53.084;6.696;2024-03-22T03:32:42;75.78;;;40.65;;
83632;SDS011;73595;53.084;6.696;2024-03-22T03:35:07;76.50;;;39.40;;
83632;SDS011;73595;53.084;6.696;2024-03-22T03:37:33;71.22;;;38.95;;
83632;SDS011;73595;53.084;6.696;2024-03-22T03:39:58;79.18;;;41.60;;
83632;SDS011;73595;53.084;6.696;2024-03-22T03:42:23;81.50;;;41.55;;
83632;SDS011;73595;53.084;6.696;2024-03-22T03:44:49;84.50;;;41.13;;
83632;SDS011;73595;53.084;6.696;2024-03-22T03:47:14;76.38;;;40.33;;
83632;SDS011;73595;53.084;6.696;2024-03-22T03:49:40;83.63;;;41.25;;
83632;SDS011;73595;53.084;6.696;2024-03-22T03:52:05;78.32;;;40.80;;
83632;SDS011;73595;53.084;6.696;2024-03-22T03:54:31;83.50;;;41.10;;
83632;SDS011;73595;53.084;6.696;2024-03-22T03:56:56;87.50;;;42.00;;
83632;SDS011;73595;53.084;6.696;2024-03-22T03:59:21;77.78;;;40.13;;
83632;SDS011;73595;53.084;6.696;2024-03-22T04:01:47;85.45;;;41.30;;
83632;SDS011;73595;53.084;6.696;2024-03-22T04:04:12;90.95;;;42.58;;
83632;SDS011;73595;53.084;6.696;2024-03-22T04:06:38;85.82;;;42.05;;
83632;SDS011;73595;53.084;6.696;2024-03-22T04:09:03;81.15;;;41.28;;
83632;SDS011;73595;53.084;6.696;2024-03-22T04:11:28;82.43;;;40.33;;
83632;SDS011;73595;53.084;6.696;2024-03-22T04:13:54;80.53;;;40.08;;
83632;SDS011;73595;53.084;6.696;2024-03-22T04:16:19;87.13;;;41.45;;
83632;SDS011;73595;53.084;6.696;2024-03-22T04:18:45;75.22;;;38.28;;
83632;SDS011;73595;53.084;6.696;2024-03-22T04:21:10;78.07;;;40.13;;
83632;SDS011;73595;53.084;6.696;2024-03-22T04:23:35;77.03;;;40.70;;
83632;SDS011;73595;53.084;6.696;2024-03-22T04:26:01;76.53;;;39.80;;
83632;SDS011;73595;53.084;6.696;2024-03-22T04:28:27;80.78;;;40.15;;
83632;SDS011;73595;53.084;6.696;2024-03-22T04:31:00;81.15;;;42.47;;
83632;SDS011;73595;53.084;6.696;2024-03-22T04:33:27;82.43;;;39.80;;
83632;SDS011;73595;53.084;6.696;2024-03-22T04:35:54;81.93;;;40.03;;
83632;SDS011;73595;53.084;6.696;2024-03-22T04:38:21;76.32;;;39.05;;
83632;SDS011;73595;53.084;6.696;2024-03-22T04:40:46;77.60;;;38.65;;
83632;SDS011;73595;53.084;6.696;2024-03-22T04:43:12;82.18;;;40.13;;
83632;SDS011;73595;53.084;6.696;2024-03-22T04:45:37;84.20;;;40.08;;
83632;SDS011;73595;53.084;6.696;2024-03-22T04:48:03;85.30;;;37.92;;
83632;SDS011;73595;53.084;6.696;2024-03-22T04:50:29;71.90;;;35.90;;
83632;SDS011;73595;53.084;6.696;2024-03-22T04:52:55;84.15;;;37.78;;
83632;SDS011;73595;53.084;6.696;2024-03-22T04:55:20;89.28;;;37.88;;
83632;SDS011;73595;53.084;6.696;2024-03-22T04:57:46;75.72;;;37.08;;
83632;SDS011;73595;53.084;6.696;2024-03-22T05:00:11;74.10;;;34.88;;
83632;SDS011;73595;53.084;6.696;2024-03-22T05:02:37;77.00;;;36.60;;
83632;SDS011;73595;53.084;6.696;2024-03-22T05:05:03;71.47;;;34.85;;
83632;SDS011;73595;53.084;6.696;2024-03-22T05:07:28;80.53;;;37.45;;
83632;SDS011;73595;53.084;6.696;2024-03-22T05:09:54;69.32;;;33.63;;
83632;SDS011;73595;53.084;6.696;2024-03-22T05:12:19;67.47;;;32.35;;
83632;SDS011;73595;53.084;6.696;2024-03-22T05:14:44;74.82;;;34.58;;
83632;SDS011;73595;53.084;6.696;2024-03-22T05:17:09;73.70;;;33.97;;
83632;SDS011;73595;53.084;6.696;2024-03-22T05:19:35;66.15;;;34.00;;
83632;SDS011;73595;53.084;6.696;2024-03-22T05:22:00;78.28;;;34.83;;
83632;SDS011;73595;53.084;6.696;2024-03-22T05:24:26;70.10;;;33.25;;
83632;SDS011;73595;53.084;6.696;2024-03-22T05:26:51;68.93;;;32.33;;
83632;SDS011;73595;53.084;6.696;2024-03-22T05:29:17;68.22;;;33.03;;
83632;SDS011;73595;53.084;6.696;2024-03-22T05:31:46;68.22;;;32.92;;
83632;SDS011;73595;53.084;6.696;2024-03-22T05:34:14;60.47;;;31.60;;
83632;SDS011;73595;53.084;6.696;2024-03-22T05:36:42;66.13;;;30.50;;
83632;SDS011;73595;53.084;6.696;2024-03-22T05:39:08;68.85;;;32.17;;
83632;SDS011;73595;53.084;6.696;2024-03-22T05:41:36;59.03;;;30.20;;
83632;SDS011;73595;53.084;6.696;2024-03-22T05:44:02;67.50;;;30.65;;
83632;SDS011;73595;53.084;6.696;2024-03-22T05:46:36;74.45;;;33.45;;
83632;SDS011;73595;53.084;6.696;2024-03-22T05:49:02;62.33;;;29.88;;
83632;SDS011;73595;53.084;6.696;2024-03-22T05:51:27;66.15;;;29.58;;
83632;SDS011;73595;53.084;6.696;2024-03-22T05:53:53;67.15;;;29.35;;
83632;SDS011;73595;53.084;6.696;2024-03-22T05:56:18;64.45;;;30.67;;
83632;SDS011;73595;53.084;6.696;2024-03-22T05:58:44;61.72;;;30.45;;
83632;SDS011;73595;53.084;6.696;2024-03-22T06:01:09;69.30;;;30.63;;
83632;SDS011;73595;53.084;6.696;2024-03-22T06:03:34;59.85;;;30.23;;
83632;SDS011;73595;53.084;6.696;2024-03-22T06:06:00;55.42;;;27.65;;
83632;SDS011;73595;53.084;6.696;2024-03-22T06:08:25;63.03;;;29.35;;
83632;SDS011;73595;53.084;6.696;2024-03-22T06:10:54;68.38;;;30.20;;
83632;SDS011;73595;53.084;6.696;2024-03-22T06:13:23;56.53;;;27.88;;
83632;SDS011;73595;53.084;6.696;2024-03-22T06:15:49;63.38;;;29.58;;
83632;SDS011;73595;53.084;6.696;2024-03-22T06:18:14;60.10;;;29.63;;
83632;SDS011;73595;53.084;6.696;2024-03-22T06:20:40;55.80;;;27.77;;
83632;SDS011;73595;53.084;6.696;2024-03-22T06:23:07;61.92;;;28.40;;
83632;SDS011;73595;53.084;6.696;2024-03-22T06:25:32;64.03;;;29.92;;
83632;SDS011;73595;53.084;6.696;2024-03-22T06:27:58;57.50;;;27.73;;
83632;SDS011;73595;53.084;6.696;2024-03-22T06:30:23;57.08;;;28.02;;
83632;SDS011;73595;53.084;6.696;2024-03-22T06:32:48;49.72;;;26.40;;
83632;SDS011;73595;53.084;6.696;2024-03-22T06:35:14;56.50;;;26.95;;
83632;SDS011;73595;53.084;6.696;2024-03-22T06:37:39;58.58;;;27.58;;
83632;SDS011;73595;53.084;6.696;2024-03-22T06:40:06;55.60;;;27.40;;
83632;SDS011;73595;53.084;6.696;2024-03-22T06:42:32;53.28;;;25.33;;
83632;SDS011;73595;53.084;6.696;2024-03-22T06:44:57;48.70;;;25.88;;
83632;SDS011;73595;53.084;6.696;2024-03-22T06:47:23;51.03;;;27.63;;
83632;SDS011;73595;53.084;6.696;2024-03-22T06:49:48;58.20;;;26.00;;
83632;SDS011;73595;53.084;6.696;2024-03-22T06:52:14;53.83;;;26.92;;
83632;SDS011;73595;53.084;6.696;2024-03-22T06:54:39;50.00;;;26.48;;
83632;SDS011;73595;53.084;6.696;2024-03-22T06:57:05;50.50;;;24.58;;
83632;SDS011;73595;53.084;6.696;2024-03-22T06:59:31;54.50;;;26.63;;
83632;SDS011;73595;53.084;6.696;2024-03-22T07:01:56;53.78;;;25.33;;
83632;SDS011;73595;53.084;6.696;2024-03-22T07:04:22;52.72;;;26.67;;
83632;SDS011;73595;53.084;6.696;2024-03-22T07:06:47;51.90;;;25.45;;
83632;SDS011;73595;53.084;6.696;2024-03-22T07:09:13;49.25;;;23.58;;
83632;SDS011;73595;53.084;6.696;2024-03-22T07:11:38;51.30;;;25.02;;
83632;SDS011;73595;53.084;6.696;2024-03-22T07:14:03;48.53;;;22.75;;
83632;SDS011;73595;53.084;6.696;2024-03-22T07:16:28;47.95;;;23.00;;
83632;SDS011;73595;53.084;6.696;2024-03-22T07:18:54;50.78;;;24.35;;
83632;SDS011;73595;53.084;6.696;2024-03-22T07:21:19;42.72;;;21.30;;
83632;SDS011;73595;53.084;6.696;2024-03-22T07:23:45;43.75;;;21.00;;
83632;SDS011;73595;53.084;6.696;2024-03-22T07:26:10;46.45;;;20.92;;
83632;SDS011;73595;53.084;6.696;2024-03-22T07:28:35;48.50;;;21.08;;
83632;SDS011;73595;53.084;6.696;2024-03-22T07:31:00;40.67;;;19.88;;
83632;SDS011;73595;53.084;6.696;2024-03-22T07:33:26;44.53;;;19.75;;
83632;SDS011;73595;53.084;6.696;2024-03-22T07:35:51;47.38;;;20.42;;
83632;SDS011;73595;53.084;6.696;2024-03-22T07:38:19;53.15;;;19.58;;
83632;SDS011;73595;53.084;6.696;2024-03-22T07:40:44;40.58;;;18.80;;
83632;SDS011;73595;53.084;6.696;2024-03-22T07:43:10;47.88;;;21.65;;
83632;SDS011;73595;53.084;6.696;2024-03-22T07:45:35;40.55;;;18.77;;
83632;SDS011;73595;53.084;6.696;2024-03-22T07:48:01;45.13;;;19.13;;
83632;SDS011;73595;53.084;6.696;2024-03-22T07:50:26;42.67;;;19.15;;
83632;SDS011;73595;53.084;6.696;2024-03-22T07:52:52;45.10;;;19.60;;
83632;SDS011;73595;53.084;6.696;2024-03-22T07:55:18;42.80;;;18.75;;
83632;SDS011;73595;53.084;6.696;2024-03-22T07:57:43;38.55;;;18.58;;
83632;SDS011;73595;53.084;6.696;2024-03-22T08:00:09;37.65;;;17.52;;
83632;SDS011;73595;53.084;6.696;2024-03-22T08:02:35;45.25;;;19.27;;
83632;SDS011;73595;53.084;6.696;2024-03-22T08:05:00;46.88;;;20.38;;
83632;SDS011;73595;53.084;6.696;2024-03-22T08:07:26;42.15;;;17.55;;
83632;SDS011;73595;53.084;6.696;2024-03-22T08:09:52;31.63;;;17.00;;
83632;SDS011;73595;53.084;6.696;2024-03-22T08:12:17;38.08;;;17.52;;
83632;SDS011;73595;53.084;6.696;2024-03-22T08:14:44;45.13;;;18.88;;
83632;SDS011;73595;53.084;6.696;2024-03-22T08:17:10;47.15;;;18.90;;
83632;SDS011;73595;53.084;6.696;2024-03-22T08:19:36;32.63;;;16.77;;
83632;SDS011;73595;53.084;6.696;2024-03-22T08:22:02;37.42;;;16.48;;
83632;SDS011;73595;53.084;6.696;2024-03-22T08:24:28;31.30;;;15.23;;
83632;SDS011;73595;53.084;6.696;2024-03-22T08:26:53;34.05;;;16.15;;
83632;SDS011;73595;53.084;6.696;2024-03-22T08:29:18;36.90;;;16.27;;
83632;SDS011;73595;53.084;6.696;2024-03-22T08:31:44;29.45;;;14.77;;
83632;SDS011;73595;53.084;6.696;2024-03-22T08:34:09;38.15;;;15.65;;
83632;SDS011;73595;53.084;6.696;2024-03-22T08:36:35;26.27;;;14.20;;
83632;SDS011;73595;53.084;6.696;2024-03-22T08:39:00;33.65;;;14.60;;
83632;SDS011;73595;53.084;6.696;2024-03-22T08:41:25;32.65;;;14.70;;
83632;SDS011;73595;53.084;6.696;2024-03-22T08:43:51;27.85;;;13.50;;
83632;SDS011;73595;53.084;6.696;2024-03-22T08:46:16;24.92;;;12.75;;
83632;SDS011;73595;53.084;6.696;2024-03-22T08:48:41;24.70;;;12.55;;
83632;SDS011;73595;53.084;6.696;2024-03-22T08:51:07;24.33;;;12.00;;
83632;SDS011;73595;53.084;6.696;2024-03-22T08:53:32;24.70;;;12.70;;
83632;SDS011;73595;53.084;6.696;2024-03-22T08:55:58;22.73;;;11.10;;
83632;SDS011;73595;53.084;6.696;2024-03-22T08:58:23;23.17;;;12.18;;
83632;SDS011;73595;53.084;6.696;2024-03-22T09:00:49;24.23;;;11.05;;
83632;SDS011;73595;53.084;6.696;2024-03-22T09:03:14;24.25;;;11.70;;
83632;SDS011;73595;53.084;6.696;2024-03-22T09:05:40;22.23;;;10.93;;
83632;SDS011;73595;53.084;6.696;2024-03-22T09:08:06;23.50;;;11.45;;
83632;SDS011;73595;53.084;6.696;2024-03-22T09:10:31;21.90;;;11.15;;
83632;SDS011;73595;53.084;6.696;2024-03-22T09:12:57;17.58;;;10.68;;
83632;SDS011;73595;53.084;6.696;2024-03-22T09:15:22;18.95;;;10.13;;
83632;SDS011;73595;53.084;6.696;2024-03-22T09:17:47;22.20;;;10.30;;
83632;SDS011;73595;53.084;6.696;2024-03-22T09:20:13;19.45;;;9.35;;
83632;SDS011;73595;53.084;6.696;2024-03-22T09:22:39;17.38;;;9.45;;
83632;SDS011;73595;53.084;6.696;2024-03-22T09:25:04;17.33;;;8.98;;
83632;SDS011;73595;53.084;6.696;2024-03-22T09:27:30;16.05;;;8.93;;
83632;SDS011;73595;53.084;6.696;2024-03-22T09:29:56;13.40;;;8.45;;
83632;SDS011;73595;53.084;6.696;2024-03-22T09:32:22;14.55;;;7.75;;
83632;SDS011;73595;53.084;6.696;2024-03-22T09:34:48;14.65;;;8.35;;
83632;SDS011;73595;53.084;6.696;2024-03-22T09:37:15;12.55;;;7.85;;
83632;SDS011;73595;53.084;6.696;2024-03-22T09:39:40;15.35;;;8.18;;
83632;SDS011;73595;53.084;6.696;2024-03-22T09:42:06;12.63;;;7.85;;
83632;SDS011;73595;53.084;6.696;2024-03-22T09:44:31;12.10;;;7.57;;
83632;SDS011;73595;53.084;6.696;2024-03-22T09:46:57;13.70;;;7.65;;
83632;SDS011;73595;53.084;6.696;2024-03-22T09:49:24;11.07;;;7.10;;
83632;SDS011;73595;53.084;6.696;2024-03-22T09:51:50;11.82;;;6.60;;
83632;SDS011;73595;53.084;6.696;2024-03-22T09:54:16;10.18;;;6.28;;
83632;SDS011;73595;53.084;6.696;2024-03-22T09:56:42;11.10;;;7.10;;
83632;SDS011;73595;53.084;6.696;2024-03-22T09:59:10;10.20;;;6.80;;
83632;SDS011;73595;53.084;6.696;2024-03-22T10:01:36;10.95;;;6.75;;
83632;SDS011;73595;53.084;6.696;2024-03-22T10:04:01;9.10;;;6.40;;
83632;SDS011;73595;53.084;6.696;2024-03-22T10:06:28;10.32;;;6.78;;
83632;SDS011;73595;53.084;6.696;2024-03-22T10:08:54;8.50;;;5.90;;
83632;SDS011;73595;53.084;6.696;2024-03-22T10:11:22;9.18;;;5.75;;
83632;SDS011;73595;53.084;6.696;2024-03-22T10:13:48;8.90;;;5.70;;
83632;SDS011;73595;53.084;6.696;2024-03-22T10:16:16;10.98;;;6.82;;
83632;SDS011;73595;53.084;6.696;2024-03-22T10:18:41;6.60;;;5.40;;
83632;SDS011;73595;53.084;6.696;2024-03-22T10:21:07;7.97;;;5.45;;
83632;SDS011;73595;53.084;6.696;2024-03-22T10:23:32;8.82;;;6.18;;
83632;SDS011;73595;53.084;6.696;2024-03-22T10:25:58;6.80;;;5.03;;
83632;SDS011;73595;53.084;6.696;2024-03-22T10:28:27;8.10;;;5.18;;
83632;SDS011;73595;53.084;6.696;2024-03-22T10:30:53;7.68;;;5.03;;
83632;SDS011;73595;53.084;6.696;2024-03-22T10:33:19;8.02;;;5.05;;
83632;SDS011;73595;53.084;6.696;2024-03-22T10:35:47;9.65;;;5.78;;
83632;SDS011;73595;53.084;6.696;2024-03-22T10:38:19;6.32;;;4.38;;
83632;SDS011;73595;53.084;6.696;2024-03-22T10:40:45;6.22;;;4.43;;
83632;SDS011;73595;53.084;6.696;2024-03-22T10:43:12;7.93;;;5.15;;
83632;SDS011;73595;53.084;6.696;2024-03-22T10:45:38;6.45;;;4.85;;
83632;SDS011;73595;53.084;6.696;2024-03-22T10:48:05;5.97;;;3.97;;
83632;SDS011;73595;53.084;6.696;2024-03-22T10:50:39;6.22;;;4.30;;
83632;SDS011;73595;53.084;6.696;2024-03-22T10:53:07;7.18;;;4.75;;
83632;SDS011;73595;53.084;6.696;2024-03-22T10:55:42;8.40;;;4.20;;
83632;SDS011;73595;53.084;6.696;2024-03-22T10:58:14;6.25;;;4.80;;
83632;SDS011;73595;53.084;6.696;2024-03-22T11:00:42;6.13;;;4.43;;
83632;SDS011;73595;53.084;6.696;2024-03-22T11:03:12;6.07;;;4.75;;
83632;SDS011;73595;53.084;6.696;2024-03-22T11:05:44;6.35;;;4.78;;
83632;SDS011;73595;53.084;6.696;2024-03-22T11:08:11;7.28;;;4.75;;
83632;SDS011;73595;53.084;6.696;2024-03-22T11:10:36;5.85;;;3.55;;
83632;SDS011;73595;53.084;6.696;2024-03-22T11:13:02;5.88;;;4.13;;
83632;SDS011;73595;53.084;6.696;2024-03-22T11:15:29;5.50;;;3.75;;
83632;SDS011;73595;53.084;6.696;2024-03-22T11:17:55;5.20;;;2.85;;
83632;SDS011;73595;53.084;6.696;2024-03-22T11:20:21;3.58;;;2.70;;
83632;SDS011;73595;53.084;6.696;2024-03-22T11:22:46;4.18;;;2.63;;
83632;SDS011;73595;53.084;6.696;2024-03-22T11:25:12;6.40;;;3.40;;
83632;SDS011;73595;53.084;6.696;2024-03-22T11:27:37;5.18;;;3.00;;
83632;SDS011;73595;53.084;6.696;2024-03-22T11:30:02;4.60;;;2.55;;
83632;SDS011;73595;53.084;6.696;2024-03-22T11:32:28;4.78;;;3.10;;
83632;SDS011;73595;53.084;6.696;2024-03-22T11:34:54;3.70;;;2.67;;
83632;SDS011;73595;53.084;6.696;2024-03-22T11:37:20;4.03;;;2.65;;
83632;SDS011;73595;53.084;6.696;2024-03-22T11:39:45;6.78;;;3.20;;
83632;SDS011;73595;53.084;6.696;2024-03-22T11:42:10;4.03;;;2.97;;
83632;SDS011;73595;53.084;6.696;2024-03-22T11:44:37;6.32;;;3.08;;
83632;SDS011;73595;53.084;6.696;2024-03-22T11:47:04;5.20;;;3.35;;
83632;SDS011;73595;53.084;6.696;2024-03-22T11:49:30;3.58;;;2.67;;
83632;SDS011;73595;53.084;6.696;2024-03-22T11:51:56;3.83;;;2.95;;
83632;SDS011;73595;53.084;6.696;2024-03-22T11:54:24;3.50;;;2.58;;
83632;SDS011;73595;53.084;6.696;2024-03-22T11:56:49;4.22;;;2.10;;
83632;SDS011;73595;53.084;6.696;2024-03-22T11:59:15;3.17;;;1.90;;
83632;SDS011;73595;53.084;6.696;2024-03-22T12:01:44;4.38;;;2.00;;
83632;SDS011;73595;53.084;6.696;2024-03-22T12:04:09;3.20;;;2.30;;
83632;SDS011;73595;53.084;6.696;2024-03-22T12:06:40;3.75;;;2.40;;
83632;SDS011;73595;53.084;6.696;2024-03-22T12:09:07;3.75;;;1.95;;
83632;SDS011;73595;53.084;6.696;2024-03-22T12:11:33;6.95;;;2.10;;
83632;SDS011;73595;53.084;6.696;2024-03-22T12:13:58;5.47;;;1.80;;
83632;SDS011;73595;53.084;6.696;2024-03-22T12:16:24;3.00;;;1.67;;
83632;SDS011;73595;53.084;6.696;2024-03-22T12:18:49;4.07;;;2.10;;
83632;SDS011;73595;53.084;6.696;2024-03-22T12:21:14;3.47;;;1.70;;
83632;SDS011;73595;53.084;6.696;2024-03-22T12:23:39;4.65;;;2.40;;
83632;SDS011;73595;53.084;6.696;2024-03-22T12:26:05;5.32;;;2.33;;
83632;SDS011;73595;53.084;6.696;2024-03-22T12:28:31;4.40;;;2.42;;
83632;SDS011;73595;53.084;6.696;2024-03-22T12:30:56;4.72;;;2.38;;
83632;SDS011;73595;53.084;6.696;2024-03-22T12:33:21;5.38;;;2.20;;
83632;SDS011;73595;53.084;6.696;2024-03-22T12:35:47;4.30;;;2.30;;
83632;SDS011;73595;53.084;6.696;2024-03-22T12:38:13;5.47;;;2.30;;
83632;SDS011;73595;53.084;6.696;2024-03-22T12:40:39;6.72;;;2.60;;
83632;SDS011;73595;53.084;6.696;2024-03-22T12:43:05;4.63;;;2.58;;
83632;SDS011;73595;53.084;6.696;2024-03-22T12:45:31;6.07;;;2.78;;
83632;SDS011;73595;53.084;6.696;2024-03-22T12:47:57;10.00;;;2.75;;
83632;SDS011;73595;53.084;6.696;2024-03-22T12:50:23;7.80;;;2.90;;
83632;SDS011;73595;53.084;6.696;2024-03-22T12:52:49;7.35;;;3.45;;
83632;SDS011;73595;53.084;6.696;2024-03-22T12:55:14;6.05;;;2.90;;
83632;SDS011;73595;53.084;6.696;2024-03-22T12:57:40;7.85;;;3.17;;
83632;SDS011;73595;53.084;6.696;2024-03-22T13:00:06;5.38;;;2.88;;
83632;SDS011;73595;53.084;6.696;2024-03-22T13:02:37;9.43;;;2.75;;
83632;SDS011;73595;53.084;6.696;2024-03-22T13:05:05;5.20;;;2.60;;
83632;SDS011;73595;53.084;6.696;2024-03-22T13:07:31;6.53;;;2.80;;
83632;SDS011;73595;53.084;6.696;2024-03-22T13:09:57;9.18;;;3.50;;
83632;SDS011;73595;53.084;6.696;2024-03-22T13:12:25;11.18;;;3.22;;
83632;SDS011;73595;53.084;6.696;2024-03-22T13:14:50;8.27;;;3.20;;
83632;SDS011;73595;53.084;6.696;2024-03-22T13:17:17;6.10;;;3.10;;
83632;SDS011;73595;53.084;6.696;2024-03-22T13:19:42;5.82;;;2.70;;
83632;SDS011;73595;53.084;6.696;2024-03-22T13:22:07;9.52;;;3.50;;
83632;SDS011;73595;53.084;6.696;2024-03-22T13:24:33;6.63;;;2.88;;
83632;SDS011;73595;53.084;6.696;2024-03-22T13:26:59;9.20;;;3.33;;
83632;SDS011;73595;53.084;6.696;2024-03-22T13:29:24;18.05;;;3.55;;
83632;SDS011;73595;53.084;6.696;2024-03-22T13:31:49;11.80;;;3.22;;
83632;SDS011;73595;53.084;6.696;2024-03-22T13:34:14;8.32;;;2.95;;
83632;SDS011;73595;53.084;6.696;2024-03-22T13:36:40;12.80;;;3.63;;
83632;SDS011;73595;53.084;6.696;2024-03-22T13:39:05;13.20;;;3.88;;
83632;SDS011;73595;53.084;6.696;2024-03-22T13:41:30;13.50;;;3.83;;
83632;SDS011;73595;53.084;6.696;2024-03-22T13:43:56;14.48;;;4.22;;
83632;SDS011;73595;53.084;6.696;2024-03-22T13:46:21;12.00;;;3.20;;
83632;SDS011;73595;53.084;6.696;2024-03-22T13:48:47;19.42;;;4.88;;
83632;SDS011;73595;53.084;6.696;2024-03-22T13:51:13;13.88;;;3.15;;
83632;SDS011;73595;53.084;6.696;2024-03-22T13:53:38;14.82;;;3.88;;
83632;SDS011;73595;53.084;6.696;2024-03-22T13:56:03;16.77;;;4.60;;
83632;SDS011;73595;53.084;6.696;2024-03-22T13:58:29;18.05;;;4.80;;
83632;SDS011;73595;53.084;6.696;2024-03-22T14:00:54;21.40;;;4.95;;
83632;SDS011;73595;53.084;6.696;2024-03-22T14:03:19;20.65;;;4.45;;
83632;SDS011;73595;53.084;6.696;2024-03-22T14:05:45;17.58;;;4.95;;
83632;SDS011;73595;53.084;6.696;2024-03-22T14:08:10;20.48;;;4.90;;
83632;SDS011;73595;53.084;6.696;2024-03-22T14:10:36;18.67;;;4.72;;
83632;SDS011;73595;53.084;6.696;2024-03-22T14:13:02;21.88;;;4.47;;
83632;SDS011;73595;53.084;6.696;2024-03-22T14:15:28;18.48;;;4.43;;
83632;SDS011;73595;53.084;6.696;2024-03-22T14:17:56;23.98;;;5.32;;
83632;SDS011;73595;53.084;6.696;2024-03-22T14:20:22;19.38;;;4.55;;